sensor_id;sensor_type;location;lat;lon;timestamp;P1;durP1;ratioP1;P2;durP2;ratioP2
15358;SDS011;7779;49.596;11.070;2023-03-08T00:00:59;4.53;;;3.30;;
15358;SDS011;7779;49.596;11.070;2023-03-08T00:03:25;5.20;;;3.97;;
15358;SDS011;7779;49.596;11.070;2023-03-08T00:05:51;4.63;;;3.57;;
15358;SDS011;7779;49.596;11.070;2023-03-08T00:08:17;4.80;;;3.60;;
15358;SDS011;7779;49.596;11.070;2023-03-08T00:10:43;4.43;;;3.70;;
15358;SDS011;7779;49.596;11.070;2023-03-08T00:13:09;6.50;;;3.73;;
15358;SDS011;7779;49.596;11.070;2023-03-08T00:15:38;5.00;;;3.90;;
15358;SDS011;7779;49.596;11.070;2023-03-08T00:18:04;4.87;;;3.63;;
15358;SDS011;7779;49.596;11.070;2023-03-08T00:20:31;5.30;;;3.73;;
15358;SDS011;7779;49.596;11.070;2023-03-08T00:22:57;4.13;;;3.73;;
15358;SDS011;7779;49.596;11.070;2023-03-08T00:25:22;5.10;;;3.80;;
15358;SDS011;7779;49.596;11.070;2023-03-08T00:27:48;5.23;;;3.70;;
15358;SDS011;7779;49.596;11.070;2023-03-08T00:30:14;5.23;;;3.70;;
15358;SDS011;7779;49.596;11.070;2023-03-08T00:32:40;5.23;;;3.40;;
15358;SDS011;7779;49.596;11.070;2023-03-08T00:35:06;4.63;;;3.40;;
15358;SDS011;7779;49.596;11.070;2023-03-08T00:37:33;4.60;;;3.57;;
15358;SDS011;7779;49.596;11.070;2023-03-08T00:39:59;5.30;;;3.50;;
15358;SDS011;7779;49.596;11.070;2023-03-08T00:42:25;5.57;;;3.63;;
15358;SDS011;7779;49.596;11.070;2023-03-08T00:44:50;4.40;;;3.30;;
15358;SDS011;7779;49.596;11.070;2023-03-08T00:47:16;4.57;;;3.47;;
15358;SDS011;7779;49.596;11.070;2023-03-08T00:49:42;4.40;;;3.80;;
15358;SDS011;7779;49.596;11.070;2023-03-08T00:52:08;4.80;;;3.80;;
15358;SDS011;7779;49.596;11.070;2023-03-08T00:54:35;5.37;;;3.77;;
15358;SDS011;7779;49.596;11.070;2023-03-08T00:57:01;4.07;;;3.20;;
15358;SDS011;7779;49.596;11.070;2023-03-08T00:59:27;3.47;;;2.90;;
15358;SDS011;7779;49.596;11.070;2023-03-08T01:01:54;6.23;;;3.87;;
15358;SDS011;7779;49.596;11.070;2023-03-08T01:04:20;5.33;;;3.57;;
15358;SDS011;7779;49.596;11.070;2023-03-08T01:06:46;4.63;;;3.70;;
15358;SDS011;7779;49.596;11.070;2023-03-08T01:09:13;4.90;;;3.57;;
15358;SDS011;7779;49.596;11.070;2023-03-08T01:11:38;3.97;;;3.17;;
15358;SDS011;7779;49.596;11.070;2023-03-08T01:14:05;4.23;;;3.40;;
15358;SDS011;7779;49.596;11.070;2023-03-08T01:16:34;4.03;;;3.00;;
15358;SDS011;7779;49.596;11.070;2023-03-08T01:19:01;5.43;;;3.63;;
15358;SDS011;7779;49.596;11.070;2023-03-08T01:21:29;4.90;;;3.40;;
15358;SDS011;7779;49.596;11.070;2023-03-08T01:23:56;4.80;;;3.40;;
15358;SDS011;7779;49.596;11.070;2023-03-08T01:26:23;4.40;;;3.30;;
15358;SDS011;7779;49.596;11.070;2023-03-08T01:28:54;5.60;;;3.60;;
15358;SDS011;7779;49.596;11.070;2023-03-08T01:31:21;3.83;;;3.20;;
15358;SDS011;7779;49.596;11.070;2023-03-08T01:33:54;4.80;;;3.17;;
15358;SDS011;7779;49.596;11.070;2023-03-08T01:36:22;4.40;;;3.60;;
15358;SDS011;7779;49.596;11.070;2023-03-08T01:38:50;5.63;;;3.50;;
15358;SDS011;7779;49.596;11.070;2023-03-08T01:41:18;5.93;;;3.53;;
15358;SDS011;7779;49.596;11.070;2023-03-08T01:43:50;5.07;;;3.77;;
15358;SDS011;7779;49.596;11.070;2023-03-08T01:46:51;4.47;;;3.60;;
15358;SDS011;7779;49.596;11.070;2023-03-08T01:49:29;4.67;;;3.50;;
15358;SDS011;7779;49.596;11.070;2023-03-08T01:52:09;4.27;;;3.40;;
15358;SDS011;7779;49.596;11.070;2023-03-08T01:54:50;4.30;;;3.63;;
15358;SDS011;7779;49.596;11.070;2023-03-08T01:57:23;4.40;;;3.23;;
15358;SDS011;7779;49.596;11.070;2023-03-08T01:59:58;4.87;;;3.50;;
15358;SDS011;7779;49.596;11.070;2023-03-08T02:02:52;4.83;;;3.63;;
15358;SDS011;7779;49.596;11.070;2023-03-08T02:05:24;5.40;;;3.80;;
15358;SDS011;7779;49.596;11.070;2023-03-08T02:07:56;4.47;;;3.70;;
15358;SDS011;7779;49.596;11.070;2023-03-08T02:10:26;4.40;;;3.87;;
15358;SDS011;7779;49.596;11.070;2023-03-08T02:12:52;4.30;;;3.40;;
15358;SDS011;7779;49.596;11.070;2023-03-08T02:15:19;6.00;;;4.00;;
15358;SDS011;7779;49.596;11.070;2023-03-08T02:17:50;4.23;;;3.47;;
15358;SDS011;7779;49.596;11.070;2023-03-08T02:20:29;5.00;;;3.27;;
15358;SDS011;7779;49.596;11.070;2023-03-08T02:25:52;3.63;;;3.20;;
15358;SDS011;7779;49.596;11.070;2023-03-08T02:28:27;4.53;;;3.40;;
15358;SDS011;7779;49.596;11.070;2023-03-08T02:30:55;5.47;;;4.03;;
15358;SDS011;7779;49.596;11.070;2023-03-08T02:33:21;4.67;;;3.63;;
15358;SDS011;7779;49.596;11.070;2023-03-08T02:35:48;4.27;;;3.10;;
15358;SDS011;7779;49.596;11.070;2023-03-08T02:38:14;5.17;;;3.80;;
15358;SDS011;7779;49.596;11.070;2023-03-08T02:40:43;3.90;;;3.50;;
15358;SDS011;7779;49.596;11.070;2023-03-08T02:43:09;4.53;;;3.60;;
15358;SDS011;7779;49.596;11.070;2023-03-08T02:45:38;4.30;;;3.50;;
15358;SDS011;7779;49.596;11.070;2023-03-08T02:48:04;5.27;;;3.60;;
15358;SDS011;7779;49.596;11.070;2023-03-08T02:50:30;4.87;;;3.77;;
15358;SDS011;7779;49.596;11.070;2023-03-08T02:52:57;5.30;;;3.93;;
15358;SDS011;7779;49.596;11.070;2023-03-08T02:55:24;4.20;;;3.40;;
15358;SDS011;7779;49.596;11.070;2023-03-08T02:57:50;4.43;;;3.73;;
15358;SDS011;7779;49.596;11.070;2023-03-08T03:00:17;5.73;;;3.80;;
15358;SDS011;7779;49.596;11.070;2023-03-08T03:02:43;4.87;;;3.80;;
15358;SDS011;7779;49.596;11.070;2023-03-08T03:05:09;5.63;;;3.60;;
15358;SDS011;7779;49.596;11.070;2023-03-08T03:07:37;4.43;;;3.53;;
15358;SDS011;7779;49.596;11.070;2023-03-08T03:10:10;4.27;;;3.50;;
15358;SDS011;7779;49.596;11.070;2023-03-08T03:12:39;4.57;;;3.40;;
15358;SDS011;7779;49.596;11.070;2023-03-08T03:15:09;5.93;;;3.80;;
15358;SDS011;7779;49.596;11.070;2023-03-08T03:17:38;5.40;;;3.73;;
15358;SDS011;7779;49.596;11.070;2023-03-08T03:20:04;4.27;;;3.20;;
15358;SDS011;7779;49.596;11.070;2023-03-08T03:22:35;4.40;;;3.30;;
15358;SDS011;7779;49.596;11.070;2023-03-08T03:25:03;5.63;;;3.63;;
15358;SDS011;7779;49.596;11.070;2023-03-08T03:27:30;5.20;;;3.80;;
15358;SDS011;7779;49.596;11.070;2023-03-08T03:29:56;5.77;;;3.33;;
15358;SDS011;7779;49.596;11.070;2023-03-08T03:32:22;4.60;;;3.50;;
15358;SDS011;7779;49.596;11.070;2023-03-08T03:34:48;4.10;;;3.33;;
15358;SDS011;7779;49.596;11.070;2023-03-08T03:37:17;4.90;;;3.40;;
15358;SDS011;7779;49.596;11.070;2023-03-08T03:39:43;5.00;;;3.63;;
15358;SDS011;7779;49.596;11.070;2023-03-08T03:42:12;3.80;;;3.40;;
15358;SDS011;7779;49.596;11.070;2023-03-08T03:44:45;5.00;;;3.30;;
15358;SDS011;7779;49.596;11.070;2023-03-08T03:47:15;3.80;;;3.00;;
15358;SDS011;7779;49.596;11.070;2023-03-08T03:49:41;5.47;;;3.37;;
15358;SDS011;7779;49.596;11.070;2023-03-08T03:52:07;5.13;;;3.53;;
15358;SDS011;7779;49.596;11.070;2023-03-08T03:54:41;4.30;;;3.20;;
15358;SDS011;7779;49.596;11.070;2023-03-08T03:57:08;5.37;;;3.60;;
15358;SDS011;7779;49.596;11.070;2023-03-08T03:59:37;4.00;;;2.90;;
15358;SDS011;7779;49.596;11.070;2023-03-08T04:02:03;3.87;;;3.23;;
15358;SDS011;7779;49.596;11.070;2023-03-08T04:04:47;4.43;;;3.10;;
15358;SDS011;7779;49.596;11.070;2023-03-08T04:07:16;4.73;;;3.17;;
15358;SDS011;7779;49.596;11.070;2023-03-08T04:09:49;3.93;;;3.20;;
15358;SDS011;7779;49.596;11.070;2023-03-08T04:12:15;4.80;;;3.70;;
15358;SDS011;7779;49.596;11.070;2023-03-08T04:14:42;4.67;;;3.20;;
15358;SDS011;7779;49.596;11.070;2023-03-08T04:17:10;4.20;;;3.43;;
15358;SDS011;7779;49.596;11.070;2023-03-08T04:19:46;4.03;;;3.27;;
15358;SDS011;7779;49.596;11.070;2023-03-08T04:22:14;3.93;;;3.20;;
15358;SDS011;7779;49.596;11.070;2023-03-08T04:24:48;4.57;;;3.27;;
15358;SDS011;7779;49.596;11.070;2023-03-08T04:27:19;4.13;;;3.00;;
15358;SDS011;7779;49.596;11.070;2023-03-08T04:29:45;3.80;;;3.27;;
15358;SDS011;7779;49.596;11.070;2023-03-08T04:32:11;5.07;;;3.47;;
15358;SDS011;7779;49.596;11.070;2023-03-08T04:34:43;4.23;;;3.23;;
15358;SDS011;7779;49.596;11.070;2023-03-08T04:37:12;6.20;;;3.63;;
15358;SDS011;7779;49.596;11.070;2023-03-08T04:39:40;5.93;;;4.23;;
15358;SDS011;7779;49.596;11.070;2023-03-08T04:42:08;4.60;;;3.30;;
15358;SDS011;7779;49.596;11.070;2023-03-08T04:44:34;4.50;;;3.40;;
15358;SDS011;7779;49.596;11.070;2023-03-08T04:47:01;3.87;;;3.27;;
15358;SDS011;7779;49.596;11.070;2023-03-08T04:49:44;5.27;;;2.87;;
15358;SDS011;7779;49.596;11.070;2023-03-08T04:52:09;4.57;;;3.50;;
15358;SDS011;7779;49.596;11.070;2023-03-08T04:54:37;5.10;;;3.40;;
15358;SDS011;7779;49.596;11.070;2023-03-08T04:57:12;3.93;;;3.37;;
15358;SDS011;7779;49.596;11.070;2023-03-08T04:59:38;5.47;;;3.70;;
15358;SDS011;7779;49.596;11.070;2023-03-08T05:02:05;4.50;;;3.30;;
15358;SDS011;7779;49.596;11.070;2023-03-08T05:04:33;5.47;;;3.80;;
15358;SDS011;7779;49.596;11.070;2023-03-08T05:06:59;4.67;;;3.67;;
15358;SDS011;7779;49.596;11.070;2023-03-08T05:09:28;4.37;;;3.40;;
15358;SDS011;7779;49.596;11.070;2023-03-08T05:11:55;7.43;;;3.83;;
15358;SDS011;7779;49.596;11.070;2023-03-08T05:14:23;5.00;;;3.50;;
15358;SDS011;7779;49.596;11.070;2023-03-08T05:16:49;4.83;;;3.33;;
15358;SDS011;7779;49.596;11.070;2023-03-08T05:19:15;3.80;;;3.40;;
15358;SDS011;7779;49.596;11.070;2023-03-08T05:21:48;5.03;;;3.37;;
15358;SDS011;7779;49.596;11.070;2023-03-08T05:24:14;5.93;;;3.83;;
15358;SDS011;7779;49.596;11.070;2023-03-08T05:26:40;4.10;;;3.53;;
15358;SDS011;7779;49.596;11.070;2023-03-08T05:29:08;5.23;;;3.67;;
15358;SDS011;7779;49.596;11.070;2023-03-08T05:31:35;4.00;;;3.27;;
15358;SDS011;7779;49.596;11.070;2023-03-08T05:34:03;4.57;;;3.50;;
15358;SDS011;7779;49.596;11.070;2023-03-08T05:36:34;5.97;;;3.87;;
15358;SDS011;7779;49.596;11.070;2023-03-08T05:39:00;4.57;;;3.50;;
15358;SDS011;7779;49.596;11.070;2023-03-08T05:41:35;5.50;;;3.60;;
15358;SDS011;7779;49.596;11.070;2023-03-08T05:44:01;4.97;;;3.63;;
15358;SDS011;7779;49.596;11.070;2023-03-08T05:46:29;5.20;;;4.10;;
15358;SDS011;7779;49.596;11.070;2023-03-08T05:48:55;4.50;;;3.50;;
15358;SDS011;7779;49.596;11.070;2023-03-08T05:51:22;8.60;;;3.77;;
15358;SDS011;7779;49.596;11.070;2023-03-08T05:53:47;6.10;;;3.70;;
15358;SDS011;7779;49.596;11.070;2023-03-08T05:56:18;4.70;;;3.80;;
15358;SDS011;7779;49.596;11.070;2023-03-08T05:58:55;5.23;;;3.83;;
15358;SDS011;7779;49.596;11.070;2023-03-08T06:01:25;7.27;;;3.87;;
15358;SDS011;7779;49.596;11.070;2023-03-08T06:03:57;4.43;;;3.67;;
15358;SDS011;7779;49.596;11.070;2023-03-08T06:06:27;5.10;;;3.77;;
15358;SDS011;7779;49.596;11.070;2023-03-08T06:08:57;5.60;;;3.90;;
15358;SDS011;7779;49.596;11.070;2023-03-08T06:11:23;6.00;;;3.67;;
15358;SDS011;7779;49.596;11.070;2023-03-08T06:13:51;5.37;;;4.30;;
15358;SDS011;7779;49.596;11.070;2023-03-08T06:16:19;4.67;;;3.37;;
15358;SDS011;7779;49.596;11.070;2023-03-08T06:18:46;4.30;;;3.43;;
15358;SDS011;7779;49.596;11.070;2023-03-08T06:21:14;5.60;;;4.20;;
15358;SDS011;7779;49.596;11.070;2023-03-08T06:23:45;6.57;;;4.00;;
15358;SDS011;7779;49.596;11.070;2023-03-08T06:26:12;6.80;;;4.07;;
15358;SDS011;7779;49.596;11.070;2023-03-08T06:28:40;5.30;;;4.00;;
15358;SDS011;7779;49.596;11.070;2023-03-08T06:31:12;5.63;;;4.17;;
15358;SDS011;7779;49.596;11.070;2023-03-08T06:33:43;5.23;;;4.03;;
15358;SDS011;7779;49.596;11.070;2023-03-08T06:36:15;5.03;;;4.00;;
15358;SDS011;7779;49.596;11.070;2023-03-08T06:38:44;6.43;;;4.10;;
15358;SDS011;7779;49.596;11.070;2023-03-08T06:41:12;5.47;;;4.17;;
15358;SDS011;7779;49.596;11.070;2023-03-08T06:43:40;5.87;;;4.43;;
15358;SDS011;7779;49.596;11.070;2023-03-08T06:46:06;6.57;;;4.30;;
15358;SDS011;7779;49.596;11.070;2023-03-08T06:48:36;5.83;;;4.47;;
15358;SDS011;7779;49.596;11.070;2023-03-08T06:51:02;5.43;;;3.83;;
15358;SDS011;7779;49.596;11.070;2023-03-08T06:53:30;6.47;;;4.20;;
15358;SDS011;7779;49.596;11.070;2023-03-08T06:56:00;5.47;;;4.03;;
15358;SDS011;7779;49.596;11.070;2023-03-08T06:58:29;5.17;;;4.07;;
15358;SDS011;7779;49.596;11.070;2023-03-08T07:00:55;6.43;;;4.60;;
15358;SDS011;7779;49.596;11.070;2023-03-08T07:03:23;5.30;;;4.10;;
15358;SDS011;7779;49.596;11.070;2023-03-08T07:05:49;6.03;;;4.10;;
15358;SDS011;7779;49.596;11.070;2023-03-08T07:08:15;6.63;;;4.03;;
15358;SDS011;7779;49.596;11.070;2023-03-08T07:10:40;5.30;;;4.30;;
15358;SDS011;7779;49.596;11.070;2023-03-08T07:13:06;5.67;;;4.10;;
15358;SDS011;7779;49.596;11.070;2023-03-08T07:15:32;5.67;;;4.00;;
15358;SDS011;7779;49.596;11.070;2023-03-08T07:17:57;5.73;;;4.10;;
15358;SDS011;7779;49.596;11.070;2023-03-08T07:20:24;6.53;;;4.53;;
15358;SDS011;7779;49.596;11.070;2023-03-08T07:22:52;7.47;;;5.57;;
15358;SDS011;7779;49.596;11.070;2023-03-08T07:25:19;9.60;;;5.37;;
15358;SDS011;7779;49.596;11.070;2023-03-08T07:27:46;7.67;;;5.87;;
15358;SDS011;7779;49.596;11.070;2023-03-08T07:30:13;7.83;;;5.47;;
15358;SDS011;7779;49.596;11.070;2023-03-08T07:32:40;8.23;;;5.60;;
15358;SDS011;7779;49.596;11.070;2023-03-08T07:35:07;7.67;;;4.73;;
15358;SDS011;7779;49.596;11.070;2023-03-08T07:37:35;6.77;;;4.53;;
15358;SDS011;7779;49.596;11.070;2023-03-08T07:40:01;5.53;;;4.07;;
15358;SDS011;7779;49.596;11.070;2023-03-08T07:42:28;6.27;;;4.83;;
15358;SDS011;7779;49.596;11.070;2023-03-08T07:44:59;5.47;;;4.03;;
15358;SDS011;7779;49.596;11.070;2023-03-08T07:47:25;4.50;;;3.97;;
15358;SDS011;7779;49.596;11.070;2023-03-08T07:49:50;5.80;;;3.80;;
15358;SDS011;7779;49.596;11.070;2023-03-08T07:52:16;4.60;;;3.63;;
15358;SDS011;7779;49.596;11.070;2023-03-08T07:54:42;4.63;;;3.47;;
15358;SDS011;7779;49.596;11.070;2023-03-08T07:57:14;5.80;;;3.80;;
15358;SDS011;7779;49.596;11.070;2023-03-08T07:59:40;4.37;;;3.57;;
15358;SDS011;7779;49.596;11.070;2023-03-08T08:02:09;5.10;;;3.70;;
15358;SDS011;7779;49.596;11.070;2023-03-08T08:04:38;4.57;;;3.30;;
15358;SDS011;7779;49.596;11.070;2023-03-08T08:07:04;3.77;;;3.37;;
15358;SDS011;7779;49.596;11.070;2023-03-08T08:09:31;5.73;;;4.20;;
15358;SDS011;7779;49.596;11.070;2023-03-08T08:11:57;8.23;;;4.17;;
15358;SDS011;7779;49.596;11.070;2023-03-08T08:14:23;5.20;;;3.63;;
15358;SDS011;7779;49.596;11.070;2023-03-08T08:16:49;5.83;;;3.13;;
15358;SDS011;7779;49.596;11.070;2023-03-08T08:19:15;4.80;;;3.53;;
15358;SDS011;7779;49.596;11.070;2023-03-08T08:21:41;4.83;;;3.50;;
15358;SDS011;7779;49.596;11.070;2023-03-08T08:24:07;5.13;;;3.87;;
15358;SDS011;7779;49.596;11.070;2023-03-08T08:26:33;4.43;;;3.47;;
15358;SDS011;7779;49.596;11.070;2023-03-08T08:28:58;5.20;;;3.40;;
15358;SDS011;7779;49.596;11.070;2023-03-08T08:31:26;4.23;;;3.13;;
15358;SDS011;7779;49.596;11.070;2023-03-08T08:33:56;4.07;;;3.00;;
15358;SDS011;7779;49.596;11.070;2023-03-08T08:36:23;4.73;;;3.40;;
15358;SDS011;7779;49.596;11.070;2023-03-08T08:38:49;3.67;;;3.10;;
15358;SDS011;7779;49.596;11.070;2023-03-08T08:41:16;4.13;;;3.53;;
15358;SDS011;7779;49.596;11.070;2023-03-08T08:43:45;3.90;;;3.27;;
15358;SDS011;7779;49.596;11.070;2023-03-08T08:46:12;5.80;;;3.50;;
15358;SDS011;7779;49.596;11.070;2023-03-08T08:48:39;4.60;;;3.40;;
15358;SDS011;7779;49.596;11.070;2023-03-08T08:51:06;5.13;;;3.57;;
15358;SDS011;7779;49.596;11.070;2023-03-08T08:53:35;5.43;;;3.67;;
15358;SDS011;7779;49.596;11.070;2023-03-08T08:56:14;6.57;;;4.00;;
15358;SDS011;7779;49.596;11.070;2023-03-08T08:58:46;5.30;;;3.80;;
15358;SDS011;7779;49.596;11.070;2023-03-08T09:01:17;6.07;;;4.33;;
15358;SDS011;7779;49.596;11.070;2023-03-08T09:03:46;6.63;;;4.10;;
15358;SDS011;7779;49.596;11.070;2023-03-08T09:06:13;5.67;;;4.20;;
15358;SDS011;7779;49.596;11.070;2023-03-08T09:08:41;5.20;;;4.07;;
15358;SDS011;7779;49.596;11.070;2023-03-08T09:11:07;7.03;;;4.20;;
15358;SDS011;7779;49.596;11.070;2023-03-08T09:13:35;4.97;;;4.00;;
15358;SDS011;7779;49.596;11.070;2023-03-08T09:16:13;6.10;;;4.50;;
15358;SDS011;7779;49.596;11.070;2023-03-08T09:18:41;6.47;;;4.17;;
15358;SDS011;7779;49.596;11.070;2023-03-08T09:21:07;6.37;;;4.40;;
15358;SDS011;7779;49.596;11.070;2023-03-08T09:23:33;7.90;;;4.73;;
15358;SDS011;7779;49.596;11.070;2023-03-08T09:25:58;6.83;;;5.10;;
15358;SDS011;7779;49.596;11.070;2023-03-08T09:28:24;7.10;;;5.23;;
15358;SDS011;7779;49.596;11.070;2023-03-08T09:30:50;6.33;;;4.67;;
15358;SDS011;7779;49.596;11.070;2023-03-08T09:33:16;8.63;;;5.97;;
15358;SDS011;7779;49.596;11.070;2023-03-08T09:35:42;7.00;;;5.13;;
15358;SDS011;7779;49.596;11.070;2023-03-08T09:38:07;6.70;;;4.83;;
15358;SDS011;7779;49.596;11.070;2023-03-08T09:40:36;9.33;;;5.57;;
15358;SDS011;7779;49.596;11.070;2023-03-08T09:43:24;6.93;;;4.93;;
15358;SDS011;7779;49.596;11.070;2023-03-08T09:46:09;7.13;;;4.77;;
15358;SDS011;7779;49.596;11.070;2023-03-08T09:48:40;7.37;;;4.80;;
15358;SDS011;7779;49.596;11.070;2023-03-08T09:51:13;7.13;;;5.00;;
15358;SDS011;7779;49.596;11.070;2023-03-08T09:53:45;7.63;;;4.97;;
15358;SDS011;7779;49.596;11.070;2023-03-08T09:59:30;8.43;;;4.83;;
15358;SDS011;7779;49.596;11.070;2023-03-08T10:02:16;5.60;;;4.30;;
15358;SDS011;7779;49.596;11.070;2023-03-08T10:05:06;6.07;;;4.77;;
15358;SDS011;7779;49.596;11.070;2023-03-08T10:08:17;6.63;;;4.70;;
15358;SDS011;7779;49.596;11.070;2023-03-08T10:10:58;6.03;;;4.50;;
15358;SDS011;7779;49.596;11.070;2023-03-08T10:13:51;6.23;;;4.83;;
15358;SDS011;7779;49.596;11.070;2023-03-08T10:16:25;7.90;;;5.10;;
15358;SDS011;7779;49.596;11.070;2023-03-08T10:19:17;7.10;;;5.13;;
15358;SDS011;7779;49.596;11.070;2023-03-08T10:21:55;6.10;;;4.70;;
15358;SDS011;7779;49.596;11.070;2023-03-08T10:24:30;6.97;;;5.20;;
15358;SDS011;7779;49.596;11.070;2023-03-08T10:27:19;7.47;;;5.33;;
15358;SDS011;7779;49.596;11.070;2023-03-08T10:29:52;6.63;;;4.90;;
15358;SDS011;7779;49.596;11.070;2023-03-08T10:32:21;7.57;;;5.60;;
15358;SDS011;7779;49.596;11.070;2023-03-08T10:34:49;7.67;;;5.67;;
15358;SDS011;7779;49.596;11.070;2023-03-08T10:37:15;6.90;;;5.63;;
15358;SDS011;7779;49.596;11.070;2023-03-08T10:39:50;7.40;;;5.90;;
15358;SDS011;7779;49.596;11.070;2023-03-08T10:42:25;7.70;;;5.57;;
15358;SDS011;7779;49.596;11.070;2023-03-08T10:44:56;6.53;;;5.27;;
15358;SDS011;7779;49.596;11.070;2023-03-08T10:47:32;8.07;;;5.70;;
15358;SDS011;7779;49.596;11.070;2023-03-08T10:50:20;6.37;;;5.23;;
15358;SDS011;7779;49.596;11.070;2023-03-08T10:52:48;7.17;;;5.73;;
15358;SDS011;7779;49.596;11.070;2023-03-08T10:55:19;6.77;;;5.40;;
15358;SDS011;7779;49.596;11.070;2023-03-08T10:57:57;7.10;;;5.83;;
15358;SDS011;7779;49.596;11.070;2023-03-08T11:03:12;8.03;;;6.53;;
15358;SDS011;7779;49.596;11.070;2023-03-08T11:08:51;7.10;;;6.23;;
15358;SDS011;7779;49.596;11.070;2023-03-08T11:11:19;7.30;;;6.00;;
15358;SDS011;7779;49.596;11.070;2023-03-08T11:13:47;7.57;;;5.63;;
15358;SDS011;7779;49.596;11.070;2023-03-08T11:16:28;8.20;;;6.30;;
15358;SDS011;7779;49.596;11.070;2023-03-08T11:19:21;9.10;;;6.43;;
15358;SDS011;7779;49.596;11.070;2023-03-08T11:25:13;8.50;;;6.77;;
15358;SDS011;7779;49.596;11.070;2023-03-08T11:31:27;8.30;;;6.37;;
15358;SDS011;7779;49.596;11.070;2023-03-08T11:37:38;10.47;;;7.13;;
15358;SDS011;7779;49.596;11.070;2023-03-08T11:40:18;8.20;;;6.70;;
15358;SDS011;7779;49.596;11.070;2023-03-08T11:43:14;8.83;;;6.90;;
15358;SDS011;7779;49.596;11.070;2023-03-08T11:58:37;7.67;;;6.30;;
15358;SDS011;7779;49.596;11.070;2023-03-08T12:01:18;9.13;;;6.80;;
15358;SDS011;7779;49.596;11.070;2023-03-08T12:03:57;9.43;;;6.30;;
15358;SDS011;7779;49.596;11.070;2023-03-08T12:06:42;8.17;;;6.87;;
15358;SDS011;7779;49.596;11.070;2023-03-08T12:15:00;9.43;;;6.90;;
15358;SDS011;7779;49.596;11.070;2023-03-08T12:17:39;9.10;;;6.60;;
15358;SDS011;7779;49.596;11.070;2023-03-08T12:20:15;8.90;;;6.50;;
15358;SDS011;7779;49.596;11.070;2023-03-08T12:22:53;8.73;;;7.10;;
15358;SDS011;7779;49.596;11.070;2023-03-08T12:25:31;8.67;;;7.00;;
15358;SDS011;7779;49.596;11.070;2023-03-08T12:28:04;9.87;;;7.47;;
15358;SDS011;7779;49.596;11.070;2023-03-08T12:31:02;11.53;;;7.40;;
15358;SDS011;7779;49.596;11.070;2023-03-08T12:33:36;9.03;;;7.03;;
15358;SDS011;7779;49.596;11.070;2023-03-08T12:36:03;8.87;;;6.97;;
15358;SDS011;7779;49.596;11.070;2023-03-08T12:41:23;8.77;;;7.23;;
15358;SDS011;7779;49.596;11.070;2023-03-08T12:46:28;8.17;;;6.70;;
15358;SDS011;7779;49.596;11.070;2023-03-08T12:49:18;8.57;;;6.77;;
15358;SDS011;7779;49.596;11.070;2023-03-08T12:57:29;9.80;;;7.43;;
15358;SDS011;7779;49.596;11.070;2023-03-08T13:00:19;7.50;;;6.43;;
15358;SDS011;7779;49.596;11.070;2023-03-08T13:02:57;8.53;;;6.80;;
15358;SDS011;7779;49.596;11.070;2023-03-08T13:05:48;8.37;;;7.13;;
15358;SDS011;7779;49.596;11.070;2023-03-08T13:13:23;8.73;;;6.57;;
15358;SDS011;7779;49.596;11.070;2023-03-08T13:16:19;9.13;;;6.97;;
15358;SDS011;7779;49.596;11.070;2023-03-08T13:18:49;10.73;;;8.07;;
15358;SDS011;7779;49.596;11.070;2023-03-08T13:21:32;10.20;;;7.70;;
15358;SDS011;7779;49.596;11.070;2023-03-08T13:26:57;9.27;;;7.23;;
15358;SDS011;7779;49.596;11.070;2023-03-08T13:29:54;9.03;;;7.50;;
15358;SDS011;7779;49.596;11.070;2023-03-08T13:32:26;12.20;;;8.20;;
15358;SDS011;7779;49.596;11.070;2023-03-08T13:35:02;10.13;;;8.40;;
15358;SDS011;7779;49.596;11.070;2023-03-08T13:37:29;8.60;;;7.17;;
15358;SDS011;7779;49.596;11.070;2023-03-08T13:39:57;9.63;;;7.03;;
15358;SDS011;7779;49.596;11.070;2023-03-08T13:42:25;9.87;;;7.80;;
15358;SDS011;7779;49.596;11.070;2023-03-08T13:44:53;8.70;;;7.30;;
15358;SDS011;7779;49.596;11.070;2023-03-08T13:47:40;8.67;;;7.00;;
15358;SDS011;7779;49.596;11.070;2023-03-08T13:50:16;8.00;;;7.03;;
15358;SDS011;7779;49.596;11.070;2023-03-08T13:53:09;9.87;;;7.10;;
15358;SDS011;7779;49.596;11.070;2023-03-08T13:55:42;9.07;;;7.43;;
15358;SDS011;7779;49.596;11.070;2023-03-08T13:58:17;10.63;;;7.33;;
15358;SDS011;7779;49.596;11.070;2023-03-08T14:00:57;8.57;;;6.93;;
15358;SDS011;7779;49.596;11.070;2023-03-08T14:03:26;9.10;;;6.93;;
15358;SDS011;7779;49.596;11.070;2023-03-08T14:05:54;10.13;;;7.10;;
15358;SDS011;7779;49.596;11.070;2023-03-08T14:08:21;9.80;;;7.57;;
15358;SDS011;7779;49.596;11.070;2023-03-08T14:10:51;9.57;;;7.50;;
15358;SDS011;7779;49.596;11.070;2023-03-08T14:13:29;8.93;;;6.80;;
15358;SDS011;7779;49.596;11.070;2023-03-08T14:15:59;8.47;;;7.57;;
15358;SDS011;7779;49.596;11.070;2023-03-08T14:18:34;11.10;;;8.47;;
15358;SDS011;7779;49.596;11.070;2023-03-08T14:21:04;10.83;;;8.53;;
15358;SDS011;7779;49.596;11.070;2023-03-08T14:23:47;8.63;;;7.73;;
15358;SDS011;7779;49.596;11.070;2023-03-08T14:26:27;9.03;;;7.17;;
15358;SDS011;7779;49.596;11.070;2023-03-08T14:32:03;9.80;;;7.60;;
15358;SDS011;7779;49.596;11.070;2023-03-08T14:34:42;9.70;;;7.57;;
15358;SDS011;7779;49.596;11.070;2023-03-08T14:39:36;9.30;;;7.70;;
15358;SDS011;7779;49.596;11.070;2023-03-08T14:42:17;9.23;;;7.00;;
15358;SDS011;7779;49.596;11.070;2023-03-08T14:45:00;8.53;;;7.13;;
15358;SDS011;7779;49.596;11.070;2023-03-08T14:47:50;9.87;;;6.80;;
15358;SDS011;7779;49.596;11.070;2023-03-08T14:50:58;10.87;;;7.27;;
15358;SDS011;7779;49.596;11.070;2023-03-08T14:53:38;9.30;;;6.87;;
15358;SDS011;7779;49.596;11.070;2023-03-08T14:56:06;9.10;;;7.00;;
15358;SDS011;7779;49.596;11.070;2023-03-08T14:58:47;13.60;;;8.80;;
15358;SDS011;7779;49.596;11.070;2023-03-08T15:01:26;12.03;;;8.97;;
15358;SDS011;7779;49.596;11.070;2023-03-08T15:03:54;14.47;;;9.33;;
15358;SDS011;7779;49.596;11.070;2023-03-08T15:06:25;13.53;;;8.97;;
15358;SDS011;7779;49.596;11.070;2023-03-08T15:08:54;11.37;;;9.23;;
15358;SDS011;7779;49.596;11.070;2023-03-08T15:11:22;13.53;;;9.53;;
15358;SDS011;7779;49.596;11.070;2023-03-08T15:13:48;14.30;;;9.40;;
15358;SDS011;7779;49.596;11.070;2023-03-08T15:16:14;10.80;;;8.40;;
15358;SDS011;7779;49.596;11.070;2023-03-08T15:18:40;11.63;;;8.47;;
15358;SDS011;7779;49.596;11.070;2023-03-08T15:21:09;10.80;;;8.60;;
15358;SDS011;7779;49.596;11.070;2023-03-08T15:23:42;10.47;;;7.80;;
15358;SDS011;7779;49.596;11.070;2023-03-08T15:26:12;10.10;;;7.87;;
15358;SDS011;7779;49.596;11.070;2023-03-08T15:28:45;11.23;;;8.40;;
15358;SDS011;7779;49.596;11.070;2023-03-08T15:31:10;10.10;;;7.77;;
15358;SDS011;7779;49.596;11.070;2023-03-08T15:33:36;9.80;;;8.03;;
15358;SDS011;7779;49.596;11.070;2023-03-08T15:36:02;10.30;;;8.03;;
15358;SDS011;7779;49.596;11.070;2023-03-08T15:38:28;9.97;;;7.67;;
15358;SDS011;7779;49.596;11.070;2023-03-08T15:40:54;11.00;;;7.83;;
15358;SDS011;7779;49.596;11.070;2023-03-08T15:43:20;9.63;;;7.50;;
15358;SDS011;7779;49.596;11.070;2023-03-08T15:45:46;10.07;;;7.77;;
15358;SDS011;7779;49.596;11.070;2023-03-08T15:48:15;12.13;;;8.87;;
15358;SDS011;7779;49.596;11.070;2023-03-08T15:50:43;10.47;;;8.50;;
15358;SDS011;7779;49.596;11.070;2023-03-08T15:53:09;11.07;;;8.73;;
15358;SDS011;7779;49.596;11.070;2023-03-08T15:55:36;12.50;;;8.73;;
15358;SDS011;7779;49.596;11.070;2023-03-08T15:58:04;11.30;;;8.70;;
15358;SDS011;7779;49.596;11.070;2023-03-08T16:00:30;12.90;;;9.30;;
15358;SDS011;7779;49.596;11.070;2023-03-08T16:02:56;12.83;;;10.10;;
15358;SDS011;7779;49.596;11.070;2023-03-08T16:05:23;13.30;;;10.20;;
15358;SDS011;7779;49.596;11.070;2023-03-08T16:07:57;12.40;;;9.07;;
15358;SDS011;7779;49.596;11.070;2023-03-08T16:10:27;12.40;;;9.03;;
15358;SDS011;7779;49.596;11.070;2023-03-08T16:13:01;12.13;;;9.27;;